METAR Data
IDs: Format: Raw Decoded Include TAF

Data at: 1223 UTC 16 Oct 2018

PASM 161202Z AUTO 07015G19KT 10SM BKN100 02/00 A2913 RMK AO2 SLP881 T00170000 10028 20011 55006 FZRANO
PASM 161102Z AUTO 06012KT 10SM BKN100 02/00 A2913 RMK AO2 SLP882 T00170000 FZRANO
PASM 161002Z AUTO 06011KT 10SM CLR 01/00 A2913 RMK AO2 SLP881 T00110000 FZRANO
PASM 160902Z AUTO 08016G22KT 10SM CLR 02/00 A2914 RMK AO2 SLP883 T00170000 55004 FZRANO
PASM 160802Z AUTO 07014KT 10SM BKN070 02/01 A2915 RMK AO2 SLP888 T00220006 400220022 FZRANO
PASM 160702Z AUTO 07016G21KT 10SM CLR 03/01 A2915 RMK AO2 SLP888 T00280011
PASM 160602Z AUTO 08017G22KT 10SM FEW060 03/01 A2916 RMK AO2 SLP889 60000 T00280011 10044 20028 56015
PASM 160502Z AUTO 08016G24KT 10SM BKN090 03/02 A2917 RMK AO2 PK WND 08026/0434 SLP892 T00280017
PASM 160402Z AUTO 07017G24KT 10SM FEW047 OVC085 03/02 A2917 RMK AO2 PK WND 06026/0340 SLP897 T00280017
PASM 160302Z AUTO 07014G24KT 10SM BKN040 BKN075 03/02 A2919 RMK AO2 SLP903 60000 T00330017 56020
PASM 160202Z AUTO 08017G25KT 10SM BKN036 OVC080 03/02 A2921 RMK AO2 PK WND 08029/0110 RAE0130 SLP909 P0000 T00330017
PASM 160102Z AUTO 08019G27KT 10SM -RA BKN033 BKN045 OVC075 04/02 A2921 RMK AO2 PK WND 08027/0100 RAB0045 SLP909 P0000 T00390022
PASM 160002Z AUTO 08018G27KT 10SM OVC070 04/02 A2924 RMK AO2 PK WND 09027/2357 SLP918 60000 T00390022 10039 20028 56016
PASM 152302Z AUTO 08017G24KT 10SM BKN070 04/02 A2927 RMK AO2 PK WND 07031/2242 SLP929 T00390022
PASM 152202Z AUTO 09019G28KT 10SM BKN070 04/02 A2928 RMK AO2 PK WND 08029/2125 SLP931 T00390017
PASM 152102Z AUTO 08021G27KT 10SM FEW050 SCT120 04/02 A2930 RMK AO2 PK WND 08027/2059 SLP939 60000 T00390022 56014
PASM 152002Z AUTO 08020G25KT 10SM SCT060 SCT090 BKN110 03/02 A2932 RMK AO2 PK WND 08030/1943 SLP944 T00330017
PASM 151902Z AUTO 08022G28KT 10SM SCT048 BKN055 OVC090 03/02 A2932 RMK AO2 PK WND 07028/1902 RAE1805 SLP945 P0000 T00280017
PASM 151802Z AUTO 07019G26KT 10SM -RA BKN049 03/02 A2934 RMK AO2 PK WND 07027/1752 UPE1729RAB1709 SLP953 P0000 60000 T00280017 10044 20028 58015
PASM 151702Z AUTO 07020G26KT 10SM UP OVC050 03/01 A2936 RMK AO2 PK WND 07026/1702 RAE1646UPB1646 SLP959 P0000 T00280011
PASM 151602Z AUTO 08017G27KT 10SM -RA FEW037 SCT055 BKN075 03/01 A2937 RMK AO2 PK WND 07027/1556 RAB1528E1540B1558 SLP964 P0000 T00330006
PASM 151502Z AUTO 07018G23KT 10SM SCT060 SCT075 OVC110 04/01 A2939 RMK AO2 PK WND 07026/1434 SLP969 T00390006 56020
PASM 151402Z AUTO 07019G23KT 10SM SCT110 03/00 A2940 RMK AO2 PK WND 07031/1319 SLP973 T00330000
PASM 151302Z AUTO 08021G29KT 10SM OVC120 04/01 A2941 RMK AO2 PK WND 08030/1231 SLP977 T00440006
PASM 151202Z AUTO 07023G29KT 10SM BKN110 04/01 A2943 RMK AO2 PK WND 08029/1202 SLP983 T00390006 10050 20039 58020
PASM 151102Z AUTO 07019G23KT 10SM CLR 05/01 A2946 RMK AO2 SLP995 T00500006
PASM 151002Z AUTO 07018G25KT 10SM CLR 04/01 A2949 RMK AO2 PK WND 08026/0945 SLP002 T00440011
PASM 150902Z AUTO 08017G25KT 10SM CLR 05/02 A2951 RMK AO2 SLP009 T00500017 58013
PASM 150802Z AUTO 07015G23KT 10SM SCT110 05/02 A2952 RMK AO2 SLP015 T00500022 400500050
PASM 150702Z AUTO 07013KT 10SM CLR 05/02 A2954 RMK AO2 SLP020 T00500022
PASM 150602Z AUTO 07014G21KT 10SM CLR 05/03 A2955 RMK AO2 SLP023 T00500028 10083 20050 58005
PASM 150502Z AUTO 07014G21KT 10SM CLR 05/03 A2956 RMK AO2 SLP027 T00500028
PASM 150402Z AUTO 08013KT 10SM CLR 05/03 A2957 RMK AO2 SLP030 T00500028
PASM 150302Z AUTO 08015G20KT 10SM CLR 07/03 A2957 RMK AO2 SLP031 T00670033 56013
PASM 150202Z AUTO 08013G20KT 10SM CLR 07/03 A2958 RMK AO2 SLP033 T00720033
PASM 150102Z AUTO 09013G19KT 10SM SCT095 08/03 A2958 RMK AO2 SLP034 T00780033